Time;durP1;ratioP1;P1;durP2;ratioP2;P2;SDS_P1;SDS_P2;PMS_P1;PMS_P2;Temp;Humidity;BMP_temperature;BMP_pressure;BME280_temperature;BME280_humidity;BME280_pressure;Samples;Min_cycle;Max_cycle;Signal;HPM_P1;HPM_P2
2021/12/21 00:00:13;;;;;;;8.50;4.90;;;1.40;99.90;;;;;;5113232;28;20179;-49
2021/12/21 00:02:40;;;;;;;12.32;5.97;;;1.40;99.90;;;;;;5113391;28;20176;-50
2021/12/21 00:05:06;;;;;;;8.73;5.40;;;1.50;99.90;;;;;;5113084;28;20165;-49
2021/12/21 00:07:32;;;;;;;13.32;5.68;;;1.40;99.90;;;;;;5113207;28;20274;-49
2021/12/21 00:09:58;;;;;;;19.23;8.68;;;1.50;99.90;;;;;;5094964;28;20248;-50
2021/12/21 00:12:26;;;;;;;13.23;7.40;;;1.50;99.90;;;;;;5113070;28;20175;-50
2021/12/21 00:15:05;;;;;;;20.13;8.80;;;1.50;99.90;;;;;;5094685;28;20289;-50
2021/12/21 00:20:28;;;;;;;24.90;11.80;;;1.50;99.90;;;;;;5112702;28;20168;-49
2021/12/21 00:23:28;;;;;;;18.80;8.50;;;1.50;99.90;;;;;;5112784;28;20682;-49
2021/12/21 00:25:42;;;;;;;12.43;6.50;;;1.50;99.90;;;;;;5112567;28;20176;-48
2021/12/21 00:28:08;;;;;;;21.08;9.75;;;1.50;99.90;;;;;;5113066;28;20177;-49
2021/12/21 00:30:33;;;;;;;17.20;7.85;;;1.50;99.90;;;;;;5112736;28;20502;-49
2021/12/21 00:32:59;;;;;;;20.15;8.05;;;1.50;99.90;;;;;;5113239;28;20192;-49
2021/12/21 00:35:24;;;;;;;22.83;7.78;;;1.50;99.90;;;;;;5112577;28;20283;-49
2021/12/21 00:37:50;;;;;;;18.25;9.55;;;1.50;99.90;;;;;;5112606;28;20168;-49
2021/12/21 00:40:16;;;;;;;25.90;11.07;;;1.50;99.90;;;;;;5112576;28;20285;-49
2021/12/21 00:42:42;;;;;;;17.48;8.60;;;1.50;99.90;;;;;;5112479;28;20221;-49
2021/12/21 00:45:08;;;;;;;13.50;7.07;;;1.50;99.90;;;;;;5112564;28;20522;-49
2021/12/21 00:47:35;;;;;;;18.48;6.97;;;1.50;99.90;;;;;;5112441;28;20214;-48
2021/12/21 00:50:03;;;;;;;9.70;5.78;;;1.60;99.90;;;;;;5112711;28;20173;-49
2021/12/21 00:52:29;;;;;;;14.50;6.55;;;1.60;99.90;;;;;;5113021;28;20603;-50
2021/12/21 00:54:55;;;;;;;11.07;6.82;;;1.60;99.90;;;;;;5112479;28;20235;-49
2021/12/21 00:57:21;;;;;;;12.38;5.80;;;1.60;99.90;;;;;;5112377;28;20258;-48
2021/12/21 00:59:46;;;;;;;17.60;6.75;;;1.50;99.90;;;;;;5112364;28;20172;-48
2021/12/21 01:02:12;;;;;;;10.20;5.15;;;1.50;99.90;;;;;;5112571;28;20290;-48
2021/12/21 01:04:45;;;;;;;10.70;5.20;;;1.50;99.90;;;;;;5112280;28;20168;-48
2021/12/21 01:10:10;;;;;;;8.40;5.10;;;1.50;99.90;;;;;;5112416;28;20173;-49
2021/12/21 01:20:35;;;;;;;11.40;5.20;;;1.50;99.90;;;;;;5112428;28;20165;-50
2021/12/21 01:23:34;;;;;;;10.40;5.20;;;1.50;99.90;;;;;;5112404;28;20202;-49
2021/12/21 01:26:04;;;;;;;10.02;4.82;;;1.50;99.90;;;;;;5111890;28;20679;-49
2021/12/21 01:36:49;;;;;;;10.00;4.25;;;1.40;99.90;;;;;;5116250;28;20175;-49
2021/12/21 01:39:49;;;;;;;12.70;4.95;;;1.30;99.90;;;;;;5097795;28;20263;-49
2021/12/21 01:42:19;;;;;;;9.88;3.97;;;1.40;99.90;;;;;;5115740;28;20200;-49
2021/12/21 01:49:36;;;;;;;8.88;4.22;;;1.30;99.90;;;;;;5115893;28;20168;-49
2021/12/21 01:50:15;;;;;;;10.52;4.07;;;1.30;99.90;;;;;;5115968;28;20229;-49
2021/12/21 01:52:40;;;;;;;6.60;3.90;;;1.40;99.90;;;;;;5116061;28;20168;-49
2021/12/21 01:55:06;;;;;;;9.93;4.82;;;1.40;99.90;;;;;;5115596;28;20655;-49
2021/12/21 01:57:32;;;;;;;10.55;4.45;;;1.40;99.90;;;;;;5115729;28;20172;-49
2021/12/21 01:59:58;;;;;;;6.18;4.07;;;1.30;99.90;;;;;;5115962;28;20168;-49
2021/12/21 02:02:24;;;;;;;11.18;4.25;;;1.30;99.90;;;;;;5115556;28;20493;-50
2021/12/21 02:04:50;;;;;;;10.95;5.07;;;1.30;99.90;;;;;;5115808;28;20173;-50
2021/12/21 02:07:15;;;;;;;7.10;4.18;;;1.30;99.90;;;;;;5115494;28;20214;-50
2021/12/21 02:09:41;;;;;;;10.88;4.03;;;1.20;99.90;;;;;;5115288;28;20172;-50
2021/12/21 02:12:08;;;;;;;7.65;4.30;;;1.20;99.90;;;;;;5097129;28;20180;-49
2021/12/21 02:14:35;;;;;;;8.52;4.55;;;1.20;99.90;;;;;;5115281;28;20275;-50
2021/12/21 02:17:28;;;;;;;8.70;4.30;;;1.10;99.90;;;;;;5115295;28;20173;-49
2021/12/21 02:22:45;;;;;;;11.50;4.35;;;1.00;99.90;;;;;;5115403;28;20173;-50
2021/12/21 02:27:58;;;;;;;8.00;5.13;;;0.90;99.90;;;;;;5115308;28;20176;-50
2021/12/21 02:30:25;;;;;;;8.27;4.68;;;0.80;99.90;;;;;;5115010;28;20759;-49
2021/12/21 02:32:50;;;;;;;7.18;4.32;;;0.80;99.90;;;;;;5114929;28;20169;-49
2021/12/21 02:35:18;;;;;;;10.05;3.90;;;0.80;99.90;;;;;;5114891;28;20212;-49
2021/12/21 02:37:43;;;;;;;6.47;3.78;;;0.80;99.90;;;;;;5096894;28;20171;-49
2021/12/21 02:40:10;;;;;;;7.20;4.07;;;0.80;99.90;;;;;;5114820;28;20251;-49
2021/12/21 02:42:35;;;;;;;10.25;4.07;;;0.80;99.90;;;;;;5114627;28;20157;-49
2021/12/21 02:45:01;;;;;;;12.75;5.18;;;0.80;99.90;;;;;;5114752;28;20532;-48
2021/12/21 02:47:27;;;;;;;8.05;4.65;;;0.90;99.90;;;;;;5115001;28;20511;-48
2021/12/21 02:49:52;;;;;;;8.93;4.80;;;0.90;99.90;;;;;;5114635;28;20168;-49
2021/12/21 02:52:18;;;;;;;10.65;4.95;;;0.80;99.90;;;;;;5114565;28;20165;-49
2021/12/21 02:54:43;;;;;;;9.82;5.28;;;0.80;99.90;;;;;;5114582;28;20196;-50
2021/12/21 02:57:09;;;;;;;9.48;5.13;;;0.80;99.90;;;;;;5114511;28;20220;-50
2021/12/21 02:59:35;;;;;;;9.25;4.70;;;0.70;99.90;;;;;;5114557;28;20291;-50
2021/12/21 03:02:00;;;;;;;7.90;4.82;;;0.70;99.90;;;;;;5114806;28;20169;-48
2021/12/21 03:04:26;;;;;;;15.48;7.15;;;0.80;99.90;;;;;;5114672;28;20662;-50
2021/12/21 03:09:43;;;;;;;8.20;4.82;;;0.80;99.90;;;;;;5114127;28;20669;-50
2021/12/21 03:14:50;;;;;;;7.50;5.05;;;0.80;99.90;;;;;;5114398;28;20239;-50
2021/12/21 03:17:16;;;;;;;8.18;4.47;;;0.80;99.90;;;;;;5114123;28;20170;-50
2021/12/21 03:19:42;;;;;;;7.22;3.80;;;0.80;99.90;;;;;;5114163;28;20624;-49
2021/12/21 03:22:09;;;;;;;12.95;4.60;;;0.80;99.90;;;;;;5113955;28;20210;-49
2021/12/21 03:24:36;;;;;;;8.88;4.63;;;0.70;99.90;;;;;;5113816;28;20263;-49
2021/12/21 03:27:03;;;;;;;11.50;4.55;;;0.70;99.90;;;;;;5113870;28;20541;-48
2021/12/21 03:29:28;;;;;;;9.20;5.00;;;0.70;99.90;;;;;;5114145;28;20226;-49
2021/12/21 03:31:54;;;;;;;9.68;4.72;;;0.70;99.90;;;;;;5095554;28;20160;-49
2021/12/21 03:34:20;;;;;;;10.93;4.45;;;0.60;99.90;;;;;;5113726;28;21205;-49
2021/12/21 03:36:46;;;;;;;9.63;5.15;;;0.70;99.90;;;;;;5113776;28;20218;-49
2021/12/21 03:39:18;;;;;;;9.88;5.43;;;0.70;99.90;;;;;;5113889;28;20173;-49
2021/12/21 03:41:47;;;;;;;9.85;4.15;;;0.60;99.90;;;;;;5113648;28;20184;-49
2021/12/21 03:44:14;;;;;;;11.90;4.80;;;0.60;99.90;;;;;;5113881;28;20171;-49
2021/12/21 03:46:46;;;;;;;9.70;4.63;;;0.60;99.90;;;;;;5113666;28;20168;-50
2021/12/21 03:51:57;;;;;;;13.30;4.82;;;0.60;99.90;;;;;;5114220;28;20217;-50
2021/12/21 03:54:23;;;;;;;9.23;4.88;;;0.50;99.90;;;;;;5112835;28;20563;-49
2021/12/21 03:56:51;;;;;;;9.15;4.53;;;0.60;99.90;;;;;;5113340;28;20645;-49
2021/12/21 03:59:18;;;;;;;7.00;4.60;;;0.60;99.90;;;;;;5113610;28;20183;-50
2021/12/21 04:01:44;;;;;;;14.18;4.82;;;0.60;99.90;;;;;;5113198;28;20252;-49
2021/12/21 04:04:10;;;;;;;7.07;4.00;;;0.60;99.90;;;;;;5094958;28;20174;-49
2021/12/21 04:06:37;;;;;;;8.95;4.68;;;0.60;99.90;;;;;;5113427;28;20165;-49
2021/12/21 04:09:07;;;;;;;7.45;4.80;;;0.50;99.90;;;;;;5113178;28;20195;-49
2021/12/21 04:11:33;;;;;;;6.93;4.45;;;0.40;99.90;;;;;;5112985;28;20216;-49
2021/12/21 04:14:00;;;;;;;8.30;4.72;;;0.40;99.90;;;;;;5113284;28;20666;-50
2021/12/21 04:16:26;;;;;;;9.85;4.80;;;0.50;99.90;;;;;;5113497;28;20251;-49
2021/12/21 04:18:51;;;;;;;11.82;6.07;;;0.50;99.90;;;;;;5113003;28;20240;-50
2021/12/21 04:21:17;;;;;;;12.35;5.50;;;0.40;99.90;;;;;;5112971;28;20179;-49
2021/12/21 04:23:44;;;;;;;9.15;5.60;;;0.40;99.90;;;;;;5112911;28;20165;-50
2021/12/21 04:26:12;;;;;;;10.35;5.43;;;0.40;99.90;;;;;;5112812;28;20279;-49
2021/12/21 04:28:38;;;;;;;8.73;4.65;;;0.30;99.90;;;;;;5112809;28;20160;-49
2021/12/21 04:31:04;;;;;;;6.20;4.65;;;0.40;99.90;;;;;;5112776;28;20298;-49
2021/12/21 04:33:31;;;;;;;8.55;4.45;;;0.40;99.90;;;;;;5112989;28;20171;-49
2021/12/21 04:35:57;;;;;;;9.90;4.65;;;0.40;99.90;;;;;;5113152;28;20251;-49
2021/12/21 04:38:27;;;;;;;8.10;5.10;;;0.40;99.90;;;;;;5112585;28;20180;-49
2021/12/21 04:41:03;;;;;;;9.80;5.22;;;0.40;99.90;;;;;;5112819;28;20173;-50
2021/12/21 04:43:29;;;;;;;12.20;4.82;;;0.40;99.90;;;;;;5112881;28;20247;-49
2021/12/21 04:45:55;;;;;;;9.13;4.00;;;0.30;99.90;;;;;;5112548;28;20196;-49
2021/12/21 04:48:20;;;;;;;8.73;4.10;;;0.30;99.90;;;;;;5112516;28;20160;-49
2021/12/21 04:50:46;;;;;;;9.90;4.50;;;0.30;99.90;;;;;;5112732;28;20289;-50
2021/12/21 04:53:12;;;;;;;10.98;4.75;;;0.30;99.90;;;;;;5112537;28;20260;-50
2021/12/21 04:55:38;;;;;;;13.18;5.07;;;0.30;99.90;;;;;;5112353;28;20205;-49
2021/12/21 04:58:04;;;;;;;10.73;5.00;;;0.20;99.90;;;;;;5094126;28;20208;-49
2021/12/21 05:00:30;;;;;;;8.63;4.35;;;0.10;99.90;;;;;;5112785;28;20621;-49
2021/12/21 05:02:56;;;;;;;9.43;5.00;;;1.30;99.90;;;;;;5112714;28;20175;-49
2021/12/21 05:05:21;;;;;;;8.77;4.28;;;0.20;99.90;;;;;;5113039;28;20164;-49
2021/12/21 05:07:52;;;;;;;8.05;3.95;;;0.20;99.90;;;;;;5116881;28;20202;-49
2021/12/21 05:10:19;;;;;;;6.13;3.90;;;0.20;99.90;;;;;;5116585;28;20231;-49
2021/12/21 05:12:45;;;;;;;8.63;3.80;;;0.10;99.90;;;;;;5116567;28;20247;-49
2021/12/21 05:15:11;;;;;;;12.75;4.43;;;0.10;99.90;;;;;;5116493;28;20287;-49
2021/12/21 05:17:36;;;;;;;7.53;4.70;;;0.10;99.90;;;;;;5116443;28;20164;-48
2021/12/21 05:20:03;;;;;;;5.55;3.80;;;0.10;99.90;;;;;;5116323;28;20164;-49
2021/12/21 05:22:29;;;;;;;6.35;3.92;;;-0.10;99.90;;;;;;5116639;28;20619;-49
2021/12/21 05:24:54;;;;;;;8.60;4.30;;;-0.10;99.90;;;;;;5098011;28;20213;-50
2021/12/21 05:27:21;;;;;;;7.00;3.47;;;0.10;99.90;;;;;;5116615;28;20302;-50
2021/12/21 05:29:46;;;;;;;5.50;3.63;;;0.10;99.90;;;;;;5116483;28;20176;-49
2021/12/21 05:32:12;;;;;;;6.93;4.20;;;0.10;99.90;;;;;;5116265;28;20530;-49
2021/12/21 05:34:38;;;;;;;9.43;4.35;;;0.10;99.90;;;;;;5116259;28;20200;-49
2021/12/21 05:37:06;;;;;;;6.32;3.65;;;0.10;99.90;;;;;;5116231;28;20657;-49
2021/12/21 05:39:51;;;;;;;6.68;3.75;;;0.10;99.90;;;;;;5115998;28;20214;-49
2021/12/21 05:42:17;;;;;;;6.10;3.78;;;0.10;99.90;;;;;;5115803;28;20168;-49
2021/12/21 05:44:42;;;;;;;7.55;3.92;;;0.10;99.90;;;;;;5115893;28;20573;-49
2021/12/21 05:47:08;;;;;;;7.90;4.32;;;0.10;99.90;;;;;;5115873;28;20188;-49
2021/12/21 05:49:34;;;;;;;7.05;4.03;;;0.10;99.90;;;;;;5097613;28;20196;-49
2021/12/21 05:52:00;;;;;;;11.27;4.10;;;0.00;99.90;;;;;;5116328;28;20168;-49
2021/12/21 05:54:25;;;;;;;7.85;4.00;;;0.70;99.90;;;;;;5116206;28;20210;-49
2021/12/21 05:56:51;;;;;;;11.85;4.35;;;0.00;99.90;;;;;;5115647;28;20239;-49
2021/12/21 05:59:17;;;;;;;7.13;3.58;;;0.10;99.90;;;;;;5115652;28;20199;-49
2021/12/21 06:01:42;;;;;;;8.60;4.65;;;0.00;99.90;;;;;;5115638;28;20616;-50
2021/12/21 06:04:08;;;;;;;8.90;3.85;;;0.10;99.90;;;;;;5115753;28;20292;-49
2021/12/21 06:06:34;;;;;;;10.25;3.92;;;0.00;99.90;;;;;;5097261;28;20172;-49
2021/12/21 06:09:05;;;;;;;6.63;3.97;;;0.10;99.90;;;;;;5116077;28;20168;-49
2021/12/21 06:11:33;;;;;;;7.20;3.72;;;1.80;99.90;;;;;;5115579;28;20219;-48
2021/12/21 06:14:08;;;;;;;6.28;4.30;;;0.10;99.90;;;;;;5115732;28;20543;-49
2021/12/21 06:26:58;;;;;;;8.48;4.57;;;-0.10;99.90;;;;;;5115820;28;20168;-50
2021/12/21 06:29:24;;;;;;;10.65;4.78;;;-0.10;99.90;;;;;;5115075;28;20538;-50
2021/12/21 06:31:50;;;;;;;10.32;4.97;;;-0.10;99.90;;;;;;5114992;28;20177;-50
2021/12/21 06:34:15;;;;;;;8.45;4.68;;;-0.10;99.90;;;;;;5115005;28;20267;-48
2021/12/21 06:36:41;;;;;;;12.07;5.20;;;-0.10;99.90;;;;;;5115238;28;20177;-49
2021/12/21 06:39:08;;;;;;;9.52;4.57;;;0.00;99.90;;;;;;5114893;28;20169;-49
2021/12/21 06:41:35;;;;;;;9.35;4.65;;;0.00;99.90;;;;;;5114884;28;20251;-49
2021/12/21 06:44:03;;;;;;;14.10;6.00;;;-0.10;99.90;;;;;;5114959;28;20177;-49
2021/12/21 06:46:46;;;;;;;8.35;4.30;;;-0.70;99.90;;;;;;5115092;28;20496;-49
2021/12/21 06:51:58;;;;;;;9.38;4.78;;;-0.10;99.90;;;;;;5115319;28;20172;-49
2021/12/21 06:54:24;;;;;;;9.20;4.97;;;-0.20;99.90;;;;;;5096897;28;20204;-50
2021/12/21 06:56:50;;;;;;;8.90;4.38;;;-0.20;99.90;;;;;;5114652;28;20168;-49
2021/12/21 06:59:16;;;;;;;10.30;5.20;;;-0.20;99.90;;;;;;5114517;28;20161;-50
2021/12/21 07:01:42;;;;;;;13.85;4.63;;;-0.20;99.90;;;;;;5114788;28;20509;-49
2021/12/21 07:04:09;;;;;;;6.30;4.72;;;-0.20;99.90;;;;;;5114560;28;20167;-49
2021/12/21 07:06:39;;;;;;;6.53;4.43;;;-0.30;99.90;;;;;;5114370;28;20196;-49
2021/12/21 07:11:43;;;;;;;10.32;5.40;;;-0.20;99.90;;;;;;5113897;28;20290;-49
2021/12/21 07:19:38;;;;;;;12.65;4.78;;;-0.30;99.90;;;;;;5114111;28;20225;-49
2021/12/21 07:22:05;;;;;;;8.00;5.20;;;-0.30;99.90;;;;;;5114154;28;20604;-50
2021/12/21 07:24:31;;;;;;;11.45;5.60;;;-0.30;99.90;;;;;;5114106;28;20172;-49
2021/12/21 07:26:56;;;;;;;10.43;5.65;;;-0.20;99.90;;;;;;5114209;28;20176;-49
2021/12/21 07:29:22;;;;;;;14.07;4.88;;;-0.30;99.90;;;;;;5113379;28;20168;-49
2021/12/21 07:31:49;;;;;;;12.60;5.28;;;-0.30;99.90;;;;;;5113805;28;20247;-50
2021/12/21 07:34:15;;;;;;;11.25;5.25;;;-0.30;99.90;;;;;;5095603;28;20208;-49
2021/12/21 07:36:43;;;;;;;12.52;4.78;;;-0.30;99.90;;;;;;5113842;28;20239;-50
2021/12/21 07:39:10;;;;;;;9.48;4.85;;;-0.20;99.90;;;;;;5114047;28;20180;-50
2021/12/21 07:41:36;;;;;;;7.97;4.57;;;-0.30;99.90;;;;;;5113812;28;20247;-49
2021/12/21 07:44:02;;;;;;;12.82;5.70;;;-0.20;99.90;;;;;;5113957;28;20268;-49
2021/12/21 07:46:27;;;;;;;10.75;5.85;;;-0.20;99.90;;;;;;5113864;28;20165;-49
2021/12/21 07:48:53;;;;;;;9.27;5.30;;;-0.20;99.90;;;;;;5113069;28;20161;-48
2021/12/21 07:51:19;;;;;;;11.55;5.15;;;-0.30;99.90;;;;;;5113457;28;20173;-50
2021/12/21 07:53:45;;;;;;;7.63;5.25;;;-0.30;99.90;;;;;;5113409;28;20161;-49
2021/12/21 07:56:11;;;;;;;10.15;6.53;;;-0.30;99.90;;;;;;5113442;28;20171;-50
2021/12/21 07:58:37;;;;;;;6.95;4.78;;;-0.30;99.90;;;;;;5113352;28;20221;-49
2021/12/21 08:01:05;;;;;;;10.82;5.13;;;-0.30;99.90;;;;;;5113393;28;20172;-49
2021/12/21 08:03:34;;;;;;;9.25;5.97;;;-0.20;99.90;;;;;;5113336;28;20165;-48
2021/12/21 08:06:02;;;;;;;10.95;5.63;;;-0.20;99.90;;;;;;5113692;28;20530;-49
2021/12/21 08:08:29;;;;;;;15.75;6.03;;;-0.20;99.90;;;;;;5113536;28;20165;-50
2021/12/21 08:11:11;;;;;;;18.33;6.13;;;-0.20;99.90;;;;;;5112704;28;20220;-49
2021/12/21 08:13:38;;;;;;;10.32;5.55;;;-0.20;99.90;;;;;;5113075;28;20180;-49
2021/12/21 08:16:04;;;;;;;12.70;5.95;;;-0.20;99.90;;;;;;5113250;28;20208;-48
2021/12/21 08:18:30;;;;;;;10.82;6.35;;;-0.20;99.90;;;;;;5113403;28;20192;-49
2021/12/21 08:20:57;;;;;;;9.98;6.00;;;-0.70;99.90;;;;;;5112889;28;20259;-50
2021/12/21 08:23:22;;;;;;;12.93;5.40;;;-0.10;99.90;;;;;;5113191;28;20164;-49
2021/12/21 08:25:49;;;;;;;11.15;5.65;;;-0.10;99.90;;;;;;5112822;28;20173;-49
2021/12/21 08:28:14;;;;;;;13.43;6.00;;;0.10;99.90;;;;;;5112819;28;20628;-49
2021/12/21 08:30:40;;;;;;;10.90;6.28;;;0.10;99.90;;;;;;5112879;28;20168;-49
2021/12/21 08:33:06;;;;;;;8.65;5.38;;;0.10;99.90;;;;;;5112731;28;20164;-49
2021/12/21 08:35:32;;;;;;;10.65;5.47;;;0.20;99.90;;;;;;5112558;28;20679;-49
2021/12/21 08:38:03;;;;;;;11.93;5.50;;;0.30;99.90;;;;;;5113073;28;20160;-49
2021/12/21 08:40:36;;;;;;;8.73;5.65;;;0.30;99.90;;;;;;5112916;28;20165;-49
2021/12/21 08:43:04;;;;;;;8.55;5.47;;;0.50;99.90;;;;;;5112626;28;20160;-49
2021/12/21 08:45:31;;;;;;;10.88;5.38;;;0.60;99.90;;;;;;5113172;28;20195;-49
2021/12/21 08:47:59;;;;;;;13.30;6.13;;;0.70;99.90;;;;;;5113164;28;20209;-49
2021/12/21 08:50:25;;;;;;;10.38;5.05;;;0.70;99.90;;;;;;5112825;28;20172;-49
2021/12/21 08:52:51;;;;;;;7.35;4.82;;;0.80;99.90;;;;;;5112522;28;20164;-49
2021/12/21 08:55:18;;;;;;;9.48;4.93;;;1.00;99.90;;;;;;5094706;28;20731;-49
2021/12/21 08:57:44;;;;;;;8.23;4.45;;;1.00;99.90;;;;;;5112720;28;20173;-49
2021/12/21 09:00:09;;;;;;;13.70;4.47;;;1.10;99.90;;;;;;5112476;28;20164;-50
2021/12/21 09:02:37;;;;;;;9.70;4.50;;;1.10;99.90;;;;;;5112458;28;20614;-49
2021/12/21 09:05:12;;;;;;;6.90;4.28;;;1.30;99.90;;;;;;5112619;28;20172;-48
2021/12/21 09:07:42;;;;;;;6.70;4.22;;;1.40;99.90;;;;;;5112352;28;20160;-49
2021/12/21 09:10:09;;;;;;;6.47;4.72;;;1.50;99.90;;;;;;5112084;28;20221;-49
2021/12/21 09:12:35;;;;;;;9.57;4.10;;;1.40;99.90;;;;;;5112544;28;20173;-49
2021/12/21 09:15:01;;;;;;;7.35;3.83;;;1.50;99.90;;;;;;5112197;28;20685;-49
2021/12/21 09:17:28;;;;;;;6.55;4.22;;;1.60;99.90;;;;;;5112876;28;20179;-48
2021/12/21 09:19:54;;;;;;;8.85;3.95;;;1.60;99.90;;;;;;5112575;28;20245;-49
2021/12/21 09:22:19;;;;;;;7.72;4.40;;;1.60;99.90;;;;;;5112272;28;20691;-48
2021/12/21 09:24:45;;;;;;;8.40;4.25;;;1.60;99.90;;;;;;5112199;28;20180;-49
2021/12/21 09:27:11;;;;;;;7.18;4.88;;;1.60;99.90;;;;;;5112262;28;20209;-49
2021/12/21 09:29:38;;;;;;;8.45;3.30;;;1.70;99.90;;;;;;5111845;28;20561;-49
2021/12/21 09:32:05;;;;;;;9.02;3.97;;;1.60;99.90;;;;;;5112389;28;20224;-49
2021/12/21 09:34:31;;;;;;;4.07;3.38;;;1.70;99.90;;;;;;5111803;28;20273;-49
2021/12/21 09:36:56;;;;;;;6.57;3.72;;;1.80;99.90;;;;;;5094163;28;20195;-50
2021/12/21 09:39:22;;;;;;;13.25;5.50;;;1.80;99.90;;;;;;5111761;28;20617;-49
2021/12/21 09:41:48;;;;;;;10.38;5.72;;;1.80;99.90;;;;;;5112021;28;20172;-49
2021/12/21 09:44:13;;;;;;;10.80;5.28;;;1.90;99.90;;;;;;5111862;28;20169;-50
2021/12/21 09:46:39;;;;;;;9.15;4.88;;;1.80;99.90;;;;;;5112264;28;20202;-49
2021/12/21 09:49:04;;;;;;;7.45;3.92;;;2.00;99.90;;;;;;5112079;28;20165;-49
2021/12/21 09:51:30;;;;;;;8.38;3.78;;;2.00;99.90;;;;;;5113210;28;20157;-49
2021/12/21 09:53:56;;;;;;;12.60;5.47;;;2.00;99.90;;;;;;5116340;28;20661;-49
2021/12/21 09:56:22;;;;;;;10.35;5.45;;;2.00;99.90;;;;;;5115834;28;20172;-49
2021/12/21 09:58:48;;;;;;;8.70;4.47;;;2.00;99.90;;;;;;5115928;28;20183;-49
2021/12/21 10:01:16;;;;;;;7.97;4.55;;;2.00;99.90;;;;;;5115727;28;20160;-49
2021/12/21 10:03:42;;;;;;;8.23;4.43;;;1.90;99.90;;;;;;5115650;28;20644;-49
2021/12/21 10:06:10;;;;;;;10.57;4.43;;;1.90;99.90;;;;;;5115660;28;20188;-49
2021/12/21 10:08:37;;;;;;;9.40;4.38;;;1.90;99.90;;;;;;5115562;28;20642;-49
2021/12/21 10:11:07;;;;;;;6.15;3.72;;;2.10;99.90;;;;;;5115408;28;20610;-49
2021/12/21 10:13:36;;;;;;;6.68;3.63;;;2.10;99.90;;;;;;5115511;28;20175;-49
2021/12/21 10:16:04;;;;;;;16.27;10.60;;;2.00;99.90;;;;;;5097111;28;20560;-49
2021/12/21 10:18:41;;;;;;;12.05;6.57;;;2.20;99.90;;;;;;5115718;28;20632;-49
2021/12/21 10:21:10;;;;;;;12.85;7.25;;;2.20;99.90;;;;;;5115300;28;20181;-49
2021/12/21 10:23:38;;;;;;;11.38;5.70;;;2.30;99.90;;;;;;5115021;28;20283;-49
2021/12/21 10:26:10;;;;;;;6.50;3.90;;;2.30;99.90;;;;;;5114863;28;20161;-49
2021/12/21 10:28:48;;;;;;;10.02;5.22;;;2.40;99.90;;;;;;5115132;28;20176;-49
2021/12/21 10:31:24;;;;;;;7.28;3.83;;;2.50;99.90;;;;;;5114913;28;20169;-49
2021/12/21 10:33:50;;;;;;;6.75;3.42;;;2.50;99.90;;;;;;5115181;28;20171;-49
2021/12/21 10:36:17;;;;;;;7.10;2.75;;;2.60;99.90;;;;;;5115064;28;20172;-50
2021/12/21 10:38:51;;;;;;;4.47;2.78;;;2.60;99.90;;;;;;5115174;28;20248;-49
2021/12/21 10:41:35;;;;;;;9.27;4.03;;;2.70;99.90;;;;;;5115188;28;20183;-49
2021/12/21 10:44:11;;;;;;;9.18;4.30;;;2.80;99.90;;;;;;5115184;28;20218;-49
2021/12/21 10:46:56;;;;;;;7.30;3.85;;;2.80;99.90;;;;;;5114463;28;20564;-49
2021/12/21 10:49:28;;;;;;;5.65;4.25;;;2.80;99.90;;;;;;5114407;28;20168;-49
2021/12/21 10:52:00;;;;;;;5.07;3.00;;;2.90;99.90;;;;;;5114629;28;20156;-48
2021/12/21 10:54:33;;;;;;;8.18;3.03;;;2.90;99.90;;;;;;5114579;28;20204;-49
2021/12/21 10:57:01;;;;;;;11.35;3.35;;;2.90;99.90;;;;;;5114837;28;20169;-48
2021/12/21 10:59:35;;;;;;;5.68;3.05;;;2.90;99.90;;;;;;5114519;28;20157;-48
2021/12/21 11:02:13;;;;;;;5.88;3.45;;;3.00;99.90;;;;;;5114623;28;20165;-49
2021/12/21 11:04:44;;;;;;;10.30;5.18;;;3.00;99.90;;;;;;5113521;28;20171;-48
2021/12/21 11:07:38;;;;;;;19.35;11.50;;;3.20;99.90;;;;;;5114179;28;20177;-49
2021/12/21 11:10:14;;;;;;;19.20;14.13;;;3.20;99.90;;;;;;5114079;28;20208;-49
2021/12/21 11:12:44;;;;;;;8.27;5.68;;;3.30;99.90;;;;;;5114292;28;20176;-50
2021/12/21 11:15:12;;;;;;;22.98;14.15;;;3.20;99.90;;;;;;5114158;28;20204;-48
2021/12/21 11:17:38;;;;;;;4.55;3.50;;;3.30;99.90;;;;;;5113634;28;20161;-50
2021/12/21 11:20:05;;;;;;;7.10;3.83;;;3.20;99.90;;;;;;5113801;28;20204;-50
2021/12/21 11:22:32;;;;;;;15.50;5.65;;;3.20;99.90;;;;;;5113929;28;20577;-49
2021/12/21 11:24:59;;;;;;;16.20;8.25;;;3.30;99.90;;;;;;5113991;28;20632;-50
2021/12/21 11:27:28;;;;;;;10.85;6.47;;;3.30;99.90;;;;;;5113376;28;20171;-50
2021/12/21 11:29:59;;;;;;;15.10;10.77;;;3.20;99.90;;;;;;5113513;28;20519;-50
2021/12/21 11:32:28;;;;;;;8.10;5.30;;;3.20;99.90;;;;;;5113184;28;20156;-50
2021/12/21 11:37:44;;;;;;;9.07;5.00;;;3.20;99.90;;;;;;5113684;28;20747;-50
2021/12/21 11:40:14;;;;;;;9.93;5.15;;;3.40;99.90;;;;;;5112884;28;20218;-49
2021/12/21 11:42:53;;;;;;;12.60;5.40;;;3.40;99.90;;;;;;5112955;28;20206;-49
2021/12/21 11:45:27;;;;;;;12.07;5.03;;;3.30;99.90;;;;;;5095160;28;20533;-51
2021/12/21 11:48:02;;;;;;;6.60;4.43;;;3.40;99.90;;;;;;5113440;28;20249;-50
2021/12/21 11:50:29;;;;;;;6.93;4.90;;;3.40;99.90;;;;;;5113613;28;20168;-50
2021/12/21 11:53:00;;;;;;;11.10;6.80;;;3.40;99.90;;;;;;5113163;28;20168;-48
2021/12/21 11:55:27;;;;;;;6.95;3.88;;;3.30;99.90;;;;;;5113334;28;20200;-49
2021/12/21 11:58:00;;;;;;;6.40;5.10;;;3.30;99.90;;;;;;5095504;28;20169;-50
2021/12/21 12:00:31;;;;;;;5.88;3.92;;;3.40;99.90;;;;;;5095168;28;20165;-48
2021/12/21 12:03:09;;;;;;;17.33;8.27;;;3.40;99.90;;;;;;5113508;28;20205;-50
2021/12/21 12:05:35;;;;;;;7.35;4.60;;;3.40;99.90;;;;;;5113140;28;20532;-50
2021/12/21 12:08:10;;;;;;;8.90;5.68;;;3.30;99.90;;;;;;5113233;28;20168;-50
2021/12/21 12:10:47;;;;;;;17.13;9.02;;;3.20;99.90;;;;;;5112964;28;20743;-50
2021/12/21 12:13:17;;;;;;;14.10;8.10;;;3.20;99.90;;;;;;5113113;28;20692;-50
2021/12/21 12:15:53;;;;;;;9.73;5.40;;;3.20;99.90;;;;;;5112477;28;20295;-51
2021/12/21 12:18:21;;;;;;;10.05;5.30;;;3.30;99.90;;;;;;5112930;28;20160;-50
2021/12/21 12:20:47;;;;;;;9.20;4.82;;;3.40;99.90;;;;;;5113187;28;20616;-50
2021/12/21 12:23:13;;;;;;;11.30;4.45;;;3.40;99.90;;;;;;5112855;28;20164;-50
2021/12/21 12:25:52;;;;;;;15.70;8.98;;;3.40;99.90;;;;;;5113122;28;20176;-50
2021/12/21 12:28:32;;;;;;;7.90;4.53;;;3.30;99.90;;;;;;5112802;28;20157;-50
2021/12/21 12:30:58;;;;;;;18.08;9.55;;;3.30;99.90;;;;;;5096824;28;20251;-50
2021/12/21 12:33:35;;;;;;;24.42;9.52;;;3.40;99.90;;;;;;5112524;28;20628;-50
2021/12/21 12:36:04;;;;;;;18.83;8.13;;;3.50;99.90;;;;;;5094617;28;20204;-50
2021/12/21 12:38:29;;;;;;;8.05;5.65;;;3.50;99.90;;;;;;5113149;28;20192;-50
2021/12/21 12:40:58;;;;;;;16.38;6.32;;;3.30;99.90;;;;;;5112634;28;20620;-50
2021/12/21 12:43:26;;;;;;;11.13;6.72;;;3.20;99.90;;;;;;5111530;28;20729;-47
2021/12/21 12:46:03;;;;;;;26.33;12.60;;;3.20;99.90;;;;;;5094265;28;20167;-47
2021/12/21 12:48:40;;;;;;;12.45;5.53;;;3.10;99.90;;;;;;5112490;28;20203;-48
2021/12/21 12:51:11;;;;;;;24.45;9.10;;;3.00;99.90;;;;;;5112116;28;20179;-48
2021/12/21 12:53:45;;;;;;;19.30;8.60;;;3.00;99.90;;;;;;5112443;28;20176;-47
2021/12/21 12:56:14;;;;;;;25.50;12.55;;;3.00;99.90;;;;;;5112003;28;20286;-48
2021/12/21 12:58:54;;;;;;;24.60;10.88;;;2.90;99.90;;;;;;5112540;28;20175;-48
2021/12/21 13:01:24;;;;;;;19.65;9.68;;;2.90;99.90;;;;;;5112332;28;20172;-48
2021/12/21 13:04:00;;;;;;;7.80;4.32;;;2.90;99.90;;;;;;5112283;28;20164;-47
2021/12/21 13:06:33;;;;;;;9.48;4.43;;;2.80;99.90;;;;;;5112609;28;20156;-48
2021/12/21 13:08:59;;;;;;;9.63;4.75;;;2.80;99.90;;;;;;5112414;28;20160;-48
2021/12/21 13:11:30;;;;;;;7.40;4.00;;;2.80;99.90;;;;;;5111649;28;20208;-48
2021/12/21 13:14:00;;;;;;;6.55;4.20;;;2.80;99.90;;;;;;5112370;28;20678;-48
2021/12/21 13:16:31;;;;;;;7.22;4.40;;;2.80;99.90;;;;;;5112318;28;20675;-48
2021/12/21 13:19:01;;;;;;;5.53;3.55;;;2.80;99.90;;;;;;5112358;28;20182;-48
2021/12/21 13:21:42;;;;;;;9.93;5.20;;;2.80;99.90;;;;;;5112168;28;20281;-47
2021/12/21 13:24:16;;;;;;;6.28;4.55;;;2.80;99.90;;;;;;5112069;28;20165;-48
2021/12/21 13:26:55;;;;;;;6.47;4.43;;;2.80;99.90;;;;;;5112993;28;20168;-48
2021/12/21 13:29:33;;;;;;;5.43;3.20;;;2.80;99.90;;;;;;5116146;28;20645;-48
2021/12/21 13:32:08;;;;;;;7.60;4.03;;;2.80;99.90;;;;;;5116387;28;20167;-48
2021/12/21 13:34:35;;;;;;;8.38;3.80;;;2.80;99.90;;;;;;5115889;28;20212;-48
2021/12/21 13:37:06;;;;;;;16.55;8.43;;;2.80;99.90;;;;;;5115933;28;20153;-48
2021/12/21 13:39:40;;;;;;;15.75;8.13;;;2.80;99.90;;;;;;5115628;28;20172;-48
2021/12/21 13:42:11;;;;;;;24.25;11.90;;;2.90;99.90;;;;;;5115938;28;20215;-48
2021/12/21 13:44:44;;;;;;;19.55;11.15;;;2.90;99.90;;;;;;5116085;28;20218;-48
2021/12/21 13:47:32;;;;;;;39.05;17.17;;;3.00;99.90;;;;;;5115744;28;20164;-47
2021/12/21 13:50:06;;;;;;;27.27;14.05;;;3.00;99.90;;;;;;5116053;28;20569;-48
2021/12/21 13:52:42;;;;;;;7.03;4.25;;;3.00;99.90;;;;;;5115949;28;20168;-49
2021/12/21 13:55:24;;;;;;;10.25;4.15;;;3.00;99.90;;;;;;5115663;28;20200;-50
2021/12/21 13:57:51;;;;;;;5.03;3.10;;;3.00;99.90;;;;;;5116081;28;20164;-48
2021/12/21 14:00:18;;;;;;;8.63;3.50;;;3.00;99.90;;;;;;5115813;28;20165;-49